createdAt,value
2022-10-16T15:18:10.792Z,18.30
2022-10-16T15:20:39.836Z,18.20
2022-10-16T15:23:09.771Z,18.10
2022-10-16T15:25:40.965Z,18.00
2022-10-16T15:28:08.924Z,18.00
2022-10-16T15:30:37.936Z,18.00
2022-10-16T15:33:06.891Z,18.00
2022-10-16T15:35:37.128Z,17.90
2022-10-16T15:38:05.122Z,17.90
2022-10-16T15:40:33.974Z,17.90
2022-10-16T15:43:02.736Z,17.80
2022-10-16T15:45:30.876Z,17.70
2022-10-16T15:47:59.114Z,17.70
2022-10-16T17:02:12.162Z,16.60
2022-10-16T17:04:40.620Z,16.60
2022-10-16T17:07:08.542Z,16.50
2022-10-16T17:09:36.865Z,16.50
2022-10-16T17:12:05.249Z,16.50
2022-10-16T17:14:33.840Z,16.50
2022-10-16T17:17:04.446Z,16.50
2022-10-16T17:19:38.171Z,16.50
2022-10-16T17:22:07.096Z,16.40
2022-10-16T17:24:36.255Z,16.40
2022-10-16T17:27:05.350Z,16.40
2022-10-16T17:29:34.372Z,16.40
2022-10-16T17:32:03.451Z,16.40
2022-10-16T17:34:32.428Z,16.40
2022-10-16T17:37:02.479Z,16.30
2022-10-16T17:39:31.817Z,16.30
2022-10-16T17:42:01.514Z,16.20
2022-10-16T17:44:32.372Z,16.30
2022-10-16T17:47:01.609Z,16.30
2022-10-16T17:49:30.074Z,16.20
2022-10-16T17:51:59.566Z,16.30
2022-10-16T17:54:31.185Z,16.30
2022-10-16T17:56:59.673Z,16.30
2022-10-16T17:59:28.592Z,16.20
2022-10-16T18:01:59.225Z,16.30
2022-10-16T18:04:27.974Z,16.20
2022-10-16T18:06:58.208Z,16.20
2022-10-16T18:09:27.770Z,16.20
2022-10-16T18:12:02.179Z,16.10
2022-10-16T18:14:31.364Z,16.10
2022-10-16T18:17:01.214Z,16.10
2022-10-16T18:19:30.038Z,16.00
2022-10-16T18:21:59.057Z,16.00
2022-10-16T18:24:28.024Z,16.00
2022-10-16T18:27:03.869Z,16.10
2022-10-16T18:29:33.315Z,16.00
2022-10-16T18:32:02.058Z,16.00
2022-10-16T18:34:30.613Z,15.90
2022-10-16T18:36:58.956Z,15.80
2022-10-16T18:39:27.786Z,15.80
2022-10-16T18:42:00.063Z,15.70
2022-10-16T18:44:28.911Z,15.70
2022-10-16T18:46:59.833Z,15.80
2022-10-16T18:49:28.816Z,15.80
2022-10-16T18:51:58.218Z,15.80
2022-10-16T18:54:26.809Z,15.70
2022-10-16T18:56:55.100Z,15.70
2022-10-16T18:59:26.609Z,15.60
2022-10-16T19:01:55.140Z,15.60
2022-10-16T19:04:24.780Z,15.60
2022-10-16T19:06:55.179Z,15.60
2022-10-16T19:09:24.575Z,15.60
2022-10-16T19:11:53.549Z,15.60
2022-10-16T19:14:21.946Z,15.60
2022-10-16T19:16:51.909Z,15.60
2022-10-16T19:19:20.177Z,15.50
2022-10-16T19:21:55.952Z,15.50
2022-10-16T19:24:24.561Z,15.50
2022-10-16T19:26:52.915Z,15.50
2022-10-16T19:29:21.866Z,15.50
2022-10-16T19:31:51.533Z,15.50
2022-10-16T19:34:19.816Z,15.40
2022-10-16T19:36:49.952Z,15.40
2022-10-16T19:41:47.599Z,15.40
2022-10-16T19:44:17.242Z,15.40
2022-10-16T19:46:45.663Z,15.40
2022-10-16T19:49:22.460Z,15.50
2022-10-16T19:51:52.288Z,15.40
2022-10-16T19:54:20.667Z,15.40
2022-10-16T19:56:49.148Z,15.40
2022-10-16T19:59:20.382Z,15.50
2022-10-16T20:01:48.716Z,15.40
2022-10-16T20:04:18.539Z,15.40
2022-10-16T20:06:47.722Z,15.40
2022-10-16T20:09:16.578Z,15.40
2022-10-16T20:11:44.559Z,15.40
2022-10-16T20:14:12.934Z,15.50
2022-10-16T20:16:41.693Z,15.40
2022-10-16T20:19:10.336Z,15.40
2022-10-16T20:21:43.249Z,15.40
2022-10-16T20:24:12.270Z,15.40
2022-10-16T20:26:40.930Z,15.40
2022-10-16T20:29:09.586Z,15.30
2022-10-16T20:31:38.819Z,15.30
2022-10-16T20:34:08.170Z,15.30
2022-10-16T20:36:40.479Z,15.20
2022-10-16T20:39:10.499Z,15.20
2022-10-16T20:41:38.944Z,15.20
2022-10-16T20:44:07.980Z,15.10
2022-10-16T20:46:36.847Z,15.10
2022-10-16T20:49:11.347Z,15.10
2022-10-16T20:51:45.971Z,15.10
2022-10-16T20:54:16.131Z,15.10
2022-10-16T20:56:44.288Z,15.10
2022-10-16T20:59:12.886Z,15.10
2022-10-16T21:01:41.254Z,15.00
2022-10-16T21:04:13.158Z,15.00
2022-10-16T21:06:41.696Z,15.00
2022-10-16T21:09:10.398Z,14.90
2022-10-16T21:11:40.318Z,14.90
2022-10-16T21:14:09.834Z,14.90
2022-10-16T21:16:38.125Z,14.90
2022-10-16T21:19:06.679Z,14.90
2022-10-16T21:21:47.922Z,14.90
